Time;durP1;ratioP1;P1;durP2;ratioP2;P2;SDS_P1;SDS_P2;PMS_P1;PMS_P2;Temp;Humidity;BMP_temperature;BMP_pressure;BME280_temperature;BME280_humidity;BME280_pressure;Samples;Min_cycle;Max_cycle;Signal;HPM_P1;HPM_P2
2019/10/02 00:01:58;;;;;;;1.77;1.12;;;;;;;20.43;56.88;99279.08;;;;-47
2019/10/02 00:04:58;;;;;;;1.19;1.09;;;;;;;20.43;56.87;99282.00;;;;-59
2019/10/02 00:07:58;;;;;;;1.17;1.10;;;;;;;20.42;56.89;99278.89;;;;-59
2019/10/02 00:10:58;;;;;;;1.13;1.03;;;;;;;20.42;56.87;99269.41;;;;-59
2019/10/02 00:13:58;;;;;;;1.64;1.10;;;;;;;20.42;56.88;99265.28;;;;-60
2019/10/02 00:16:58;;;;;;;1.11;1.10;;;;;;;20.42;56.86;99264.71;;;;-59
2019/10/02 00:19:58;;;;;;;1.35;1.15;;;;;;;20.42;56.87;99263.70;;;;-59
2019/10/02 00:22:58;;;;;;;1.30;1.13;;;;;;;20.42;56.91;99262.43;;;;-60
2019/10/02 00:25:58;;;;;;;1.00;0.90;;;;;;;20.41;56.89;99258.74;;;;-59
2019/10/02 00:28:58;;;;;;;1.33;1.21;;;;;;;20.42;56.88;99255.82;;;;-59
2019/10/02 00:31:58;;;;;;;1.21;1.10;;;;;;;20.41;56.88;99257.38;;;;-58
2019/10/02 00:34:58;;;;;;;1.03;1.02;;;;;;;20.41;56.92;99253.78;;;;-59
2019/10/02 00:37:58;;;;;;;1.17;1.13;;;;;;;20.40;56.88;99247.16;;;;-60
2019/10/02 00:40:58;;;;;;;1.20;1.10;;;;;;;20.41;56.90;99245.40;;;;-59
2019/10/02 00:43:58;;;;;;;1.05;1.01;;;;;;;20.40;56.88;99237.83;;;;-60
2019/10/02 00:46:58;;;;;;;1.20;1.10;;;;;;;20.40;56.88;99240.78;;;;-60
2019/10/02 00:49:58;;;;;;;1.89;1.13;;;;;;;20.41;56.87;99242.39;;;;-59
2019/10/02 00:52:58;;;;;;;1.10;1.10;;;;;;;20.40;56.90;99247.32;;;;-61
2019/10/02 00:55:58;;;;;;;1.20;1.10;;;;;;;20.40;56.89;99246.55;;;;-62
2019/10/02 00:58:58;;;;;;;1.14;1.06;;;;;;;20.41;56.91;99252.78;;;;-61
2019/10/02 01:01:58;;;;;;;1.39;1.18;;;;;;;20.40;56.87;99252.49;;;;-61
2019/10/02 01:04:58;;;;;;;1.17;1.07;;;;;;;20.40;56.90;99258.29;;;;-59
2019/10/02 01:07:58;;;;;;;1.03;1.00;;;;;;;20.39;56.92;99259.44;;;;-60
2019/10/02 01:10:58;;;;;;;1.75;1.03;;;;;;;20.39;56.88;99265.58;;;;-59
2019/10/02 01:13:58;;;;;;;1.06;1.03;;;;;;;20.39;56.87;99270.78;;;;-59
2019/10/02 01:16:58;;;;;;;1.22;1.04;;;;;;;20.39;56.87;99266.66;;;;-60
2019/10/02 01:19:58;;;;;;;1.23;1.10;;;;;;;20.39;56.84;99270.78;;;;-59
2019/10/02 01:22:58;;;;;;;1.05;1.03;;;;;;;20.39;56.90;99268.34;;;;-59
2019/10/02 01:25:58;;;;;;;1.09;1.08;;;;;;;20.39;56.89;99272.86;;;;-59
2019/10/02 01:28:58;;;;;;;1.20;1.10;;;;;;;20.39;56.90;99273.53;;;;-60
2019/10/02 01:31:58;;;;;;;1.11;1.00;;;;;;;20.38;56.85;99266.13;;;;-61
2019/10/02 01:34:58;;;;;;;1.46;1.10;;;;;;;20.38;56.86;99269.41;;;;-60
2019/10/02 01:37:58;;;;;;;0.99;0.95;;;;;;;20.37;56.88;99265.20;;;;-60
2019/10/02 01:40:58;;;;;;;1.17;1.12;;;;;;;20.37;56.86;99264.02;;;;-59
2019/10/02 01:43:58;;;;;;;0.97;0.97;;;;;;;20.37;56.85;99258.32;;;;-59
2019/10/02 01:46:58;;;;;;;1.19;1.05;;;;;;;20.37;56.84;99264.94;;;;-59
2019/10/02 01:50:02;;;;;;;1.43;1.01;;;;;;;20.37;56.89;99265.70;;;;-49
2019/10/02 01:52:58;;;;;;;1.19;1.09;;;;;;;20.36;56.88;99262.06;;;;-59
2019/10/02 01:55:58;;;;;;;1.10;1.00;;;;;;;20.36;56.86;99261.39;;;;-59
2019/10/02 01:58:58;;;;;;;1.01;1.00;;;;;;;20.36;56.87;99254.18;;;;-59
2019/10/02 02:01:59;;;;;;;1.13;1.05;;;;;;;20.37;56.82;99256.72;;;;-59
2019/10/02 02:04:58;;;;;;;1.25;1.09;;;;;;;20.37;56.84;99265.94;;;;-59
2019/10/02 02:07:58;;;;;;;0.89;0.89;;;;;;;20.36;56.88;99255.80;;;;-60
2019/10/02 02:10:58;;;;;;;1.11;1.01;;;;;;;20.36;56.86;99258.30;;;;-52
2019/10/02 02:13:58;;;;;;;1.17;1.11;;;;;;;20.36;56.84;99256.97;;;;-52
2019/10/02 02:16:58;;;;;;;0.96;0.96;;;;;;;20.35;56.87;99255.77;;;;-49
2019/10/02 02:19:57;;;;;;;1.07;0.97;;;;;;;20.36;56.86;99255.53;;;;-49
2019/10/02 02:22:58;;;;;;;1.03;1.02;;;;;;;20.36;56.85;99257.54;;;;-49
2019/10/02 02:25:58;;;;;;;1.35;0.99;;;;;;;20.35;56.82;99252.75;;;;-49
2019/10/02 02:28:58;;;;;;;1.23;1.13;;;;;;;20.35;56.84;99263.48;;;;-50
2019/10/02 02:31:58;;;;;;;1.03;1.01;;;;;;;20.35;56.83;99264.32;;;;-51
2019/10/02 02:34:58;;;;;;;1.16;1.08;;;;;;;20.35;56.84;99254.83;;;;-50
2019/10/02 02:37:58;;;;;;;0.96;0.96;;;;;;;20.35;56.85;99258.35;;;;-49
2019/10/02 02:40:58;;;;;;;1.07;1.00;;;;;;;20.34;56.85;99258.09;;;;-49
2019/10/02 02:43:58;;;;;;;1.01;0.89;;;;;;;20.35;56.87;99258.69;;;;-50
2019/10/02 02:46:58;;;;;;;1.04;1.00;;;;;;;20.35;56.84;99254.16;;;;-49
2019/10/02 02:49:58;;;;;;;1.00;1.00;;;;;;;20.34;56.84;99255.64;;;;-51
2019/10/02 02:52:58;;;;;;;1.00;1.00;;;;;;;20.34;56.84;99252.90;;;;-51
2019/10/02 02:55:58;;;;;;;1.06;1.06;;;;;;;20.33;56.84;99253.04;;;;-50
2019/10/02 02:58:58;;;;;;;0.99;0.93;;;;;;;20.33;56.84;99256.05;;;;-51
2019/10/02 03:02:10;;;;;;;0.95;0.95;;;;;;;20.34;56.83;99259.77;;;;-50
2019/10/02 03:18:03;;;;;;;0.90;0.90;;;;;;;20.34;56.81;99252.06;;;;-50
2019/10/02 03:21:03;;;;;;;0.90;0.90;;;;;;;20.33;56.86;99252.10;;;;-49
2019/10/02 03:24:03;;;;;;;1.13;1.03;;;;;;;20.33;56.87;99247.58;;;;-49
2019/10/02 03:27:05;;;;;;;1.08;1.05;;;;;;;20.33;56.87;99248.02;;;;-50
2019/10/02 03:30:03;;;;;;;1.12;1.01;;;;;;;20.33;56.86;99247.67;;;;-50
2019/10/02 03:33:03;;;;;;;1.01;1.01;;;;;;;20.33;56.87;99248.02;;;;-49
2019/10/02 03:36:03;;;;;;;1.42;0.90;;;;;;;20.32;56.86;99252.76;;;;-49
2019/10/02 03:39:04;;;;;;;0.99;0.99;;;;;;;20.33;56.87;99262.17;;;;-50
2019/10/02 03:42:03;;;;;;;1.03;1.01;;;;;;;20.32;56.85;99262.91;;;;-50
2019/10/02 03:45:03;;;;;;;1.00;1.00;;;;;;;20.33;56.86;99263.91;;;;-50
2019/10/02 03:48:03;;;;;;;0.90;0.90;;;;;;;20.32;56.85;99266.09;;;;-49
2019/10/02 03:51:03;;;;;;;1.15;1.05;;;;;;;20.32;56.85;99270.29;;;;-50
2019/10/02 03:54:03;;;;;;;0.95;0.95;;;;;;;20.31;56.86;99263.89;;;;-50
2019/10/02 03:57:03;;;;;;;1.01;1.00;;;;;;;20.32;56.87;99255.94;;;;-50
2019/10/02 04:00:03;;;;;;;1.01;1.00;;;;;;;20.32;56.83;99248.30;;;;-49
2019/10/02 04:03:03;;;;;;;0.95;0.90;;;;;;;20.31;56.87;99255.92;;;;-49
2019/10/02 04:06:03;;;;;;;0.97;0.97;;;;;;;20.32;56.88;99257.78;;;;-49
2019/10/02 04:09:03;;;;;;;0.90;0.90;;;;;;;20.31;56.88;99251.32;;;;-50
2019/10/02 04:12:03;;;;;;;0.90;0.90;;;;;;;20.31;56.86;99249.31;;;;-49
2019/10/02 04:15:03;;;;;;;0.80;0.80;;;;;;;20.31;56.84;99251.39;;;;-50
2019/10/02 04:18:03;;;;;;;0.98;0.98;;;;;;;20.32;56.83;99249.64;;;;-49
2019/10/02 04:21:03;;;;;;;0.90;0.90;;;;;;;20.31;56.85;99255.92;;;;-49
2019/10/02 04:24:03;;;;;;;0.83;0.83;;;;;;;20.31;56.82;99262.13;;;;-49
2019/10/02 04:27:03;;;;;;;0.99;0.99;;;;;;;20.31;56.81;99271.61;;;;-60
2019/10/02 04:30:03;;;;;;;1.00;1.00;;;;;;;20.31;56.82;99275.64;;;;-60
2019/10/02 04:33:03;;;;;;;1.05;1.00;;;;;;;20.30;56.82;99278.03;;;;-59
2019/10/02 04:36:03;;;;;;;1.49;1.00;;;;;;;20.30;56.82;99280.88;;;;-60
2019/10/02 04:39:06;;;;;;;1.07;1.00;;;;;;;20.30;56.83;99281.65;;;;-60
2019/10/02 04:42:10;;;;;;;1.30;1.16;;;;;;;20.30;56.85;99282.13;;;;-60
2019/10/02 04:45:03;;;;;;;0.91;0.91;;;;;;;20.30;56.83;99280.64;;;;-60
2019/10/02 04:48:03;;;;;;;1.19;1.09;;;;;;;20.30;56.83;99284.06;;;;-60
2019/10/02 04:51:03;;;;;;;1.00;1.00;;;;;;;20.30;56.85;99285.81;;;;-60
2019/10/02 04:54:03;;;;;;;0.99;0.97;;;;;;;20.29;56.83;99287.76;;;;-60
2019/10/02 04:57:03;;;;;;;0.98;0.98;;;;;;;20.29;56.85;99286.66;;;;-59
2019/10/02 05:00:03;;;;;;;0.99;0.99;;;;;;;20.30;56.81;99288.16;;;;-59
2019/10/02 05:03:03;;;;;;;1.08;1.08;;;;;;;20.29;56.84;99285.98;;;;-53
2019/10/02 05:06:03;;;;;;;1.13;1.07;;;;;;;20.29;56.80;99290.78;;;;-53
2019/10/02 05:09:04;;;;;;;1.00;1.00;;;;;;;20.29;56.81;99286.56;;;;-52
2019/10/02 05:12:03;;;;;;;1.05;1.00;;;;;;;20.30;56.81;99281.79;;;;-53
2019/10/02 05:15:03;;;;;;;1.11;1.05;;;;;;;20.29;56.84;99283.61;;;;-53
2019/10/02 05:18:03;;;;;;;1.00;1.00;;;;;;;20.28;56.83;99283.95;;;;-53
2019/10/02 05:21:03;;;;;;;0.90;0.90;;;;;;;20.28;56.83;99293.61;;;;-52
2019/10/02 05:24:03;;;;;;;1.00;1.00;;;;;;;20.28;56.80;99297.45;;;;-52
2019/10/02 05:27:03;;;;;;;0.90;0.90;;;;;;;20.28;56.83;99297.70;;;;-53
2019/10/02 05:30:03;;;;;;;1.01;1.01;;;;;;;20.28;56.82;99302.39;;;;-53
2019/10/02 05:33:03;;;;;;;0.96;0.96;;;;;;;20.29;56.82;99306.41;;;;-53
2019/10/02 05:36:03;;;;;;;1.20;1.10;;;;;;;20.29;56.83;99316.56;;;;-53
2019/10/02 05:39:03;;;;;;;1.21;1.16;;;;;;;20.29;56.82;99320.99;;;;-53
2019/10/02 05:42:03;;;;;;;0.94;0.94;;;;;;;20.29;56.81;99322.00;;;;-53
2019/10/02 05:45:03;;;;;;;0.95;0.95;;;;;;;20.28;56.80;99330.36;;;;-52
2019/10/02 05:48:41;;;;;;;0.93;0.93;;;;;;;20.28;56.82;99340.34;;;;-52
2019/10/02 05:51:04;;;;;;;1.01;1.01;;;;;;;20.28;56.82;99339.38;;;;-53
2019/10/02 05:54:03;;;;;;;1.01;1.01;;;;;;;20.28;56.84;99338.44;;;;-53
2019/10/02 05:57:03;;;;;;;1.09;1.04;;;;;;;20.28;56.81;99342.70;;;;-53
2019/10/02 06:00:03;;;;;;;1.04;1.02;;;;;;;20.28;56.82;99348.40;;;;-52
2019/10/02 06:03:03;;;;;;;1.03;1.00;;;;;;;20.28;56.78;99352.19;;;;-48
2019/10/02 06:06:03;;;;;;;1.00;1.00;;;;;;;20.28;56.80;99360.80;;;;-48
2019/10/02 06:09:03;;;;;;;1.11;1.01;;;;;;;20.27;56.82;99354.77;;;;-48
2019/10/02 06:12:03;;;;;;;1.03;1.01;;;;;;;20.28;56.83;99357.45;;;;-48
2019/10/02 06:15:03;;;;;;;1.00;1.00;;;;;;;20.27;56.83;99361.81;;;;-47
2019/10/02 06:18:03;;;;;;;1.10;0.97;;;;;;;20.28;56.80;99363.83;;;;-48
2019/10/02 06:21:03;;;;;;;1.15;1.00;;;;;;;20.27;56.82;99365.98;;;;-47
2019/10/02 06:24:03;;;;;;;1.07;0.99;;;;;;;20.27;56.81;99371.54;;;;-48
2019/10/02 06:27:03;;;;;;;1.11;1.05;;;;;;;20.28;56.81;99377.80;;;;-47
2019/10/02 06:30:03;;;;;;;1.78;1.10;;;;;;;20.28;56.76;99377.98;;;;-47
2019/10/02 06:33:03;;;;;;;1.08;1.01;;;;;;;20.28;56.79;99386.45;;;;-48
2019/10/02 06:36:03;;;;;;;0.99;0.99;;;;;;;20.27;56.77;99390.66;;;;-47
2019/10/02 06:39:04;;;;;;;0.91;0.91;;;;;;;20.27;56.77;99394.88;;;;-48
2019/10/02 06:42:03;;;;;;;1.09;1.00;;;;;;;20.27;56.79;99406.31;;;;-47
2019/10/02 06:45:03;;;;;;;1.30;1.20;;;;;;;20.27;56.77;99410.58;;;;-47
2019/10/02 06:48:03;;;;;;;1.04;1.04;;;;;;;20.27;56.77;99415.97;;;;-48
2019/10/02 06:51:03;;;;;;;1.01;0.91;;;;;;;20.28;56.78;99421.56;;;;-47
2019/10/02 06:54:03;;;;;;;1.04;1.00;;;;;;;20.26;56.79;99425.00;;;;-47
2019/10/02 06:57:03;;;;;;;1.00;1.00;;;;;;;20.27;56.77;99431.53;;;;-47
2019/10/02 07:00:03;;;;;;;1.09;1.03;;;;;;;20.26;56.77;99425.33;;;;-53
2019/10/02 07:03:03;;;;;;;1.00;1.00;;;;;;;20.27;56.75;99425.16;;;;-52
2019/10/02 07:06:03;;;;;;;1.10;1.00;;;;;;;20.27;56.76;99434.88;;;;-60
2019/10/02 07:09:03;;;;;;;1.00;1.00;;;;;;;20.27;56.75;99442.50;;;;-52
2019/10/02 07:12:03;;;;;;;1.03;1.00;;;;;;;20.27;56.75;99451.98;;;;-50
2019/10/02 07:15:03;;;;;;;0.98;0.98;;;;;;;20.27;56.75;99457.38;;;;-49
2019/10/02 07:18:03;;;;;;;0.99;0.99;;;;;;;20.27;56.75;99458.22;;;;-53
2019/10/02 07:21:03;;;;;;;0.89;0.89;;;;;;;20.27;56.73;99464.59;;;;-48
2019/10/02 07:24:04;;;;;;;1.02;0.98;;;;;;;20.27;56.74;99461.54;;;;-48
2019/10/02 07:27:03;;;;;;;0.98;0.98;;;;;;;20.27;56.73;99458.52;;;;-47
2019/10/02 07:30:03;;;;;;;1.03;1.03;;;;;;;20.27;56.72;99461.95;;;;-48
2019/10/02 07:33:03;;;;;;;0.87;0.87;;;;;;;20.27;56.76;99468.01;;;;-47
2019/10/02 07:36:03;;;;;;;1.02;1.01;;;;;;;20.27;56.71;99472.00;;;;-48
2019/10/02 07:39:03;;;;;;;1.21;0.97;;;;;;;20.28;56.70;99477.90;;;;-47
2019/10/02 07:42:03;;;;;;;1.45;1.08;;;;;;;20.27;56.71;99486.52;;;;-47
2019/10/02 07:45:03;;;;;;;1.07;1.00;;;;;;;20.27;56.71;99496.08;;;;-48
2019/10/02 07:48:03;;;;;;;1.16;1.09;;;;;;;20.27;56.72;99498.02;;;;-48
2019/10/02 07:51:03;;;;;;;4.01;1.29;;;;;;;20.29;56.89;99501.26;;;;-48
2019/10/02 07:54:03;;;;;;;1.91;1.48;;;;;;;20.23;57.41;99495.64;;;;-47
2019/10/02 07:57:03;;;;;;;4.25;1.68;;;;;;;20.22;57.55;99502.76;;;;-46
2019/10/02 08:00:03;;;;;;;3.19;1.89;;;;;;;20.23;57.55;99510.76;;;;-46
2019/10/02 08:03:03;;;;;;;2.99;1.41;;;;;;;20.27;57.46;99513.18;;;;-47
2019/10/02 08:06:03;;;;;;;3.45;1.60;;;;;;;20.29;57.31;99512.23;;;;-47
2019/10/02 08:09:04;;;;;;;2.56;1.44;;;;;;;20.31;57.21;99523.78;;;;-47
2019/10/02 08:12:03;;;;;;;2.08;1.37;;;;;;;20.32;57.24;99526.32;;;;-46
2019/10/02 08:15:03;;;;;;;2.14;1.41;;;;;;;20.33;57.12;99524.41;;;;-47
2019/10/02 08:18:03;;;;;;;2.35;1.55;;;;;;;20.33;57.06;99523.39;;;;-47
2019/10/02 08:21:03;;;;;;;3.29;1.56;;;;;;;20.35;56.98;99523.21;;;;-47
2019/10/02 08:24:03;;;;;;;3.22;1.30;;;;;;;20.35;56.97;99530.99;;;;-47
2019/10/02 08:27:03;;;;;;;2.57;1.42;;;;;;;20.36;56.92;99534.20;;;;-47
2019/10/02 08:30:03;;;;;;;2.21;1.40;;;;;;;20.36;56.92;99539.84;;;;-47
2019/10/02 08:33:03;;;;;;;2.45;1.46;;;;;;;20.37;56.83;99546.23;;;;-47
2019/10/02 08:36:03;;;;;;;2.13;1.32;;;;;;;20.36;56.84;99546.28;;;;-47
2019/10/02 08:39:03;;;;;;;2.00;1.39;;;;;;;20.38;56.75;99548.17;;;;-47
2019/10/02 08:42:03;;;;;;;2.13;1.39;;;;;;;20.36;56.78;99546.28;;;;-46
2019/10/02 08:45:03;;;;;;;2.51;1.44;;;;;;;20.38;56.73;99553.55;;;;-47
2019/10/02 08:48:03;;;;;;;1.83;1.34;;;;;;;20.38;56.73;99548.84;;;;-46
2019/10/02 08:51:03;;;;;;;2.05;1.31;;;;;;;20.37;56.72;99551.67;;;;-47
2019/10/02 08:54:03;;;;;;;2.53;1.33;;;;;;;20.39;56.68;99594.42;;;;-47
2019/10/02 08:57:03;;;;;;;3.81;1.42;;;;;;;20.38;56.72;99603.61;;;;-50
2019/10/02 09:00:03;;;;;;;3.02;1.45;;;;;;;20.39;56.81;99619.13;;;;-46
2019/10/02 09:03:03;;;;;;;3.15;1.51;;;;;;;20.37;56.97;99623.03;;;;-51
2019/10/02 09:06:03;;;;;;;1.94;1.40;;;;;;;20.40;57.09;99632.08;;;;-49
2019/10/02 09:09:03;;;;;;;1.96;1.31;;;;;;;20.40;57.04;99634.52;;;;-49
2019/10/02 09:12:03;;;;;;;3.53;1.39;;;;;;;20.43;57.19;99635.68;;;;-49
2019/10/02 09:15:03;;;;;;;2.48;1.44;;;;;;;20.45;57.11;99645.03;;;;-47
2019/10/02 09:18:03;;;;;;;3.43;1.53;;;;;;;20.47;57.17;99654.34;;;;-45
2019/10/02 09:21:03;;;;;;;3.13;1.46;;;;;;;20.48;57.24;99669.27;;;;-50
2019/10/02 09:24:03;;;;;;;2.41;1.40;;;;;;;20.49;57.18;99677.11;;;;-45
2019/10/02 09:27:03;;;;;;;1.91;1.50;;;;;;;20.49;57.20;99681.70;;;;-48
2019/10/02 09:30:03;;;;;;;2.21;1.59;;;;;;;20.49;57.27;99683.05;;;;-46
2019/10/02 09:33:03;;;;;;;3.24;1.56;;;;;;;20.49;57.38;99687.27;;;;-49
2019/10/02 09:36:03;;;;;;;2.82;1.59;;;;;;;20.48;57.24;99691.94;;;;-47
2019/10/02 09:39:03;;;;;;;3.69;1.71;;;;;;;20.49;57.27;99699.48;;;;-50
2019/10/02 09:42:03;;;;;;;1.82;1.56;;;;;;;20.51;57.31;99703.47;;;;-52
2019/10/02 09:45:03;;;;;;;2.20;1.51;;;;;;;20.51;57.26;99706.52;;;;-49
2019/10/02 09:48:03;;;;;;;3.17;1.51;;;;;;;20.52;57.31;99715.27;;;;-51
2019/10/02 09:51:03;;;;;;;2.17;1.57;;;;;;;20.53;57.19;99723.27;;;;-47
2019/10/02 09:54:03;;;;;;;2.08;1.42;;;;;;;20.53;57.26;99727.88;;;;-48
2019/10/02 09:57:03;;;;;;;1.86;1.33;;;;;;;20.55;57.22;99729.91;;;;-47
2019/10/02 10:00:03;;;;;;;2.43;1.55;;;;;;;20.55;57.21;99731.69;;;;-47
2019/10/02 10:03:03;;;;;;;1.75;1.40;;;;;;;20.56;57.17;99736.31;;;;-49
2019/10/02 10:06:03;;;;;;;3.56;1.47;;;;;;;20.57;57.16;99740.70;;;;-47
2019/10/02 10:09:03;;;;;;;5.10;1.62;;;;;;;20.56;57.26;99746.31;;;;-50
2019/10/02 10:12:02;;;;;;;2.89;1.49;;;;;;;20.55;57.23;99750.81;;;;-48
2019/10/02 10:15:02;;;;;;;3.97;1.59;;;;;;;20.58;57.26;99753.68;;;;-47
2019/10/02 10:18:03;;;;;;;4.75;1.41;;;;;;;20.58;57.26;99757.61;;;;-58
2019/10/02 10:21:03;;;;;;;5.39;1.33;;;;;;;20.59;57.28;99768.88;;;;-58
2019/10/02 10:24:03;;;;;;;2.65;1.43;;;;;;;20.60;57.25;99779.47;;;;-56
2019/10/02 10:27:03;;;;;;;2.15;1.43;;;;;;;20.59;57.17;99785.25;;;;-53
2019/10/02 10:30:03;;;;;;;2.14;1.40;;;;;;;20.60;57.15;99796.92;;;;-58
2019/10/02 10:33:02;;;;;;;2.09;1.43;;;;;;;20.61;57.18;99803.26;;;;-54
2019/10/02 10:36:03;;;;;;;3.92;1.45;;;;;;;20.60;57.12;99815.04;;;;-58
2019/10/02 10:39:03;;;;;;;2.23;1.45;;;;;;;20.59;57.04;99815.28;;;;-58
2019/10/02 10:42:03;;;;;;;3.41;1.67;;;;;;;20.57;57.06;99826.63;;;;-59
2019/10/02 10:45:03;;;;;;;1.87;1.30;;;;;;;20.55;57.09;99841.90;;;;-59
2019/10/02 10:48:03;;;;;;;2.93;1.33;;;;;;;20.54;57.03;99839.35;;;;-58
2019/10/02 10:51:03;;;;;;;3.04;1.30;;;;;;;20.53;57.06;99841.94;;;;-58
2019/10/02 10:54:03;;;;;;;3.45;1.47;;;;;;;20.52;57.00;99851.23;;;;-59
2019/10/02 10:57:03;;;;;;;3.15;1.35;;;;;;;20.51;56.99;99856.61;;;;-58
2019/10/02 11:00:03;;;;;;;2.39;1.42;;;;;;;20.50;56.95;99860.03;;;;-58
2019/10/02 11:03:03;;;;;;;1.51;1.29;;;;;;;20.50;56.91;99855.73;;;;-58
2019/10/02 11:06:03;;;;;;;3.38;1.28;;;;;;;20.49;56.91;99856.00;;;;-51
2019/10/02 11:09:03;;;;;;;2.85;1.37;;;;;;;20.51;56.89;99854.22;;;;-62
2019/10/02 11:12:03;;;;;;;1.88;1.30;;;;;;;20.50;56.92;99862.24;;;;-61
2019/10/02 11:15:03;;;;;;;1.51;1.32;;;;;;;20.52;56.97;99866.20;;;;-60
2019/10/02 11:18:03;;;;;;;2.73;1.31;;;;;;;20.53;56.91;99872.94;;;;-50
2019/10/02 11:21:03;;;;;;;1.29;1.19;;;;;;;20.52;56.92;99878.08;;;;-50
2019/10/02 11:24:03;;;;;;;2.43;1.30;;;;;;;20.50;56.81;99881.36;;;;-50
2019/10/02 11:27:03;;;;;;;3.35;1.43;;;;;;;20.52;56.81;99883.95;;;;-46
2019/10/02 11:30:03;;;;;;;3.80;1.29;;;;;;;20.51;56.77;99890.45;;;;-47
2019/10/02 11:33:03;;;;;;;1.49;1.34;;;;;;;20.51;56.80;99902.27;;;;-45
2019/10/02 11:36:03;;;;;;;4.01;1.40;;;;;;;20.50;56.84;99908.20;;;;-45
2019/10/02 11:39:03;;;;;;;1.57;1.28;;;;;;;20.52;56.83;99906.29;;;;-45
2019/10/02 11:42:03;;;;;;;2.31;1.34;;;;;;;20.51;56.87;99918.03;;;;-46
2019/10/02 11:45:03;;;;;;;1.85;1.21;;;;;;;20.53;56.87;99921.89;;;;-48
2019/10/02 11:48:03;;;;;;;3.29;1.33;;;;;;;20.57;56.68;99928.09;;;;-48
2019/10/02 11:51:03;;;;;;;2.07;1.31;;;;;;;20.55;56.70;99933.16;;;;-48
2019/10/02 11:54:02;;;;;;;2.50;1.31;;;;;;;20.53;56.66;99937.12;;;;-48
2019/10/02 11:57:03;;;;;;;1.56;1.30;;;;;;;20.52;56.64;99937.76;;;;-48
2019/10/02 12:00:03;;;;;;;2.47;1.29;;;;;;;20.49;56.69;99947.16;;;;-48
2019/10/02 12:03:03;;;;;;;2.90;1.29;;;;;;;20.50;56.63;99946.66;;;;-48
2019/10/02 12:06:03;;;;;;;2.73;1.11;;;;;;;20.49;56.63;99951.18;;;;-48
2019/10/02 12:09:03;;;;;;;3.19;1.25;;;;;;;20.47;56.67;99947.59;;;;-48
2019/10/02 12:12:03;;;;;;;2.29;1.28;;;;;;;20.46;56.60;99958.73;;;;-48
2019/10/02 12:15:03;;;;;;;1.77;1.31;;;;;;;20.46;56.62;99957.89;;;;-48
2019/10/02 12:18:03;;;;;;;1.25;1.15;;;;;;;20.48;56.58;99957.25;;;;-48
2019/10/02 12:21:02;;;;;;;2.53;1.15;;;;;;;20.47;56.57;99965.04;;;;-49
2019/10/02 12:24:03;;;;;;;4.69;1.56;;;;;;;20.48;56.60;99962.99;;;;-50
2019/10/02 12:27:03;;;;;;;1.71;1.34;;;;;;;20.51;56.46;99964.23;;;;-49
2019/10/02 12:30:03;;;;;;;3.21;1.39;;;;;;;20.50;56.46;99967.92;;;;-49
2019/10/02 12:33:03;;;;;;;2.06;1.20;;;;;;;20.49;56.52;99973.42;;;;-49
2019/10/02 12:36:03;;;;;;;3.29;1.21;;;;;;;20.49;56.57;99976.52;;;;-48
2019/10/02 12:39:03;;;;;;;1.47;1.19;;;;;;;20.50;56.54;99979.36;;;;-48
2019/10/02 12:42:03;;;;;;;2.33;1.37;;;;;;;20.48;56.47;99979.73;;;;-58
2019/10/02 12:45:03;;;;;;;1.74;1.30;;;;;;;20.46;56.42;99987.25;;;;-59
2019/10/02 12:48:03;;;;;;;1.51;1.20;;;;;;;20.46;56.43;99989.33;;;;-58
2019/10/02 12:51:03;;;;;;;3.92;1.30;;;;;;;20.45;56.39;99999.76;;;;-58
2019/10/02 12:54:03;;;;;;;4.41;1.28;;;;;;;20.45;56.35;100007.24;;;;-58
2019/10/02 12:57:03;;;;;;;2.15;1.21;;;;;;;20.44;56.36;100011.50;;;;-58
2019/10/02 13:00:03;;;;;;;2.11;1.16;;;;;;;20.44;56.37;100015.50;;;;-58
2019/10/02 13:03:02;;;;;;;1.53;1.20;;;;;;;20.43;56.45;100021.84;;;;-58
2019/10/02 13:06:02;;;;;;;2.41;1.15;;;;;;;20.43;56.34;100024.78;;;;-58
2019/10/02 13:09:05;;;;;;;2.31;1.29;;;;;;;20.42;56.32;100028.21;;;;-59
2019/10/02 13:12:02;;;;;;;1.97;1.21;;;;;;;20.43;56.33;100031.39;;;;-58
2019/10/02 13:15:03;;;;;;;1.79;1.27;;;;;;;20.42;56.28;100025.33;;;;-58
2019/10/02 13:18:03;;;;;;;1.29;1.19;;;;;;;20.41;56.37;100022.88;;;;-59
2019/10/02 13:21:03;;;;;;;1.39;1.29;;;;;;;20.41;56.26;100025.45;;;;-59
2019/10/02 13:24:03;;;;;;;1.71;1.18;;;;;;;20.40;56.26;100037.77;;;;-58
2019/10/02 13:27:03;;;;;;;2.25;1.22;;;;;;;20.40;56.27;100040.38;;;;-58
2019/10/02 13:30:03;;;;;;;1.37;1.20;;;;;;;20.40;56.27;100048.34;;;;-58
2019/10/02 13:33:03;;;;;;;2.49;1.25;;;;;;;20.42;56.31;100048.57;;;;-55
2019/10/02 13:36:03;;;;;;;4.28;1.30;;;;;;;20.43;56.38;100049.55;;;;-59
2019/10/02 13:39:03;;;;;;;5.67;1.35;;;;;;;20.45;56.48;100045.48;;;;-53
2019/10/02 13:42:03;;;;;;;4.20;1.32;;;;;;;20.48;56.54;100045.83;;;;-59
2019/10/02 13:45:03;;;;;;;3.41;1.25;;;;;;;20.49;56.50;100054.28;;;;-59
2019/10/02 13:48:02;;;;;;;3.02;1.33;;;;;;;20.51;56.69;100060.19;;;;-57
2019/10/02 13:51:03;;;;;;;5.72;1.41;;;;;;;20.50;56.67;100062.86;;;;-54
2019/10/02 13:54:03;;;;;;;2.99;1.30;;;;;;;20.50;56.81;100067.20;;;;-64
2019/10/02 13:57:03;;;;;;;3.70;1.22;;;;;;;20.49;56.84;100073.37;;;;-59
2019/10/02 14:00:03;;;;;;;4.08;1.34;;;;;;;20.50;56.87;100079.47;;;;-58
2019/10/02 14:03:03;;;;;;;5.03;1.21;;;;;;;20.51;56.90;100073.00;;;;-58
2019/10/02 14:06:03;;;;;;;3.67;1.33;;;;;;;20.53;56.90;100081.83;;;;-59
2019/10/02 14:09:02;;;;;;;4.65;1.24;;;;;;;20.53;56.83;100091.72;;;;-59
2019/10/02 14:12:03;;;;;;;7.79;1.29;;;;;;;20.53;56.68;100093.03;;;;-59
2019/10/02 14:15:03;;;;;;;6.37;1.35;;;;;;;20.51;56.87;100097.02;;;;-60
2019/10/02 14:18:03;;;;;;;1.93;1.35;;;;;;;20.51;56.71;100099.88;;;;-54
2019/10/02 14:21:03;;;;;;;2.54;1.13;;;;;;;20.53;56.71;100106.89;;;;-58
2019/10/02 14:24:03;;;;;;;2.63;1.26;;;;;;;20.53;56.73;100111.85;;;;-58
2019/10/02 14:27:09;;;;;;;2.11;1.28;;;;;;;20.55;56.73;100116.19;;;;-54
2019/10/02 14:30:02;;;;;;;5.24;1.26;;;;;;;20.56;56.71;100117.66;;;;-61
2019/10/02 14:33:02;;;;;;;2.86;1.35;;;;;;;20.56;56.74;100117.73;;;;-58
2019/10/02 14:36:03;;;;;;;2.88;1.36;;;;;;;20.57;56.73;100121.28;;;;-59
2019/10/02 14:39:03;;;;;;;4.67;1.30;;;;;;;20.58;56.70;100117.22;;;;-54
2019/10/02 14:42:03;;;;;;;2.48;1.15;;;;;;;20.59;56.66;100119.11;;;;-63
2019/10/02 14:45:03;;;;;;;3.63;1.40;;;;;;;20.60;56.69;100120.38;;;;-57
2019/10/02 14:48:03;;;;;;;2.15;1.30;;;;;;;20.60;56.62;100126.48;;;;-58
2019/10/02 14:51:02;;;;;;;2.29;1.27;;;;;;;20.58;56.44;100121.83;;;;-58
2019/10/02 14:54:03;;;;;;;4.02;1.33;;;;;;;20.56;56.57;100124.44;;;;-63
2019/10/02 14:57:03;;;;;;;1.75;1.45;;;;;;;20.57;56.47;100132.96;;;;-59
2019/10/02 15:00:03;;;;;;;2.87;1.33;;;;;;;20.57;56.49;100132.26;;;;-60
2019/10/02 15:03:03;;;;;;;2.07;1.31;;;;;;;20.58;56.42;100136.59;;;;-51
2019/10/02 15:06:03;;;;;;;4.35;1.36;;;;;;;20.57;56.40;100140.98;;;;-57
2019/10/02 15:09:03;;;;;;;6.13;1.66;;;;;;;20.60;56.33;100139.07;;;;-52
2019/10/02 15:12:03;;;;;;;5.69;1.62;;;;;;;20.61;56.33;100138.97;;;;-55
2019/10/02 15:15:03;;;;;;;5.42;1.40;;;;;;;20.61;56.23;100134.17;;;;-55
2019/10/02 15:18:02;;;;;;;5.39;1.54;;;;;;;20.63;56.24;100129.88;;;;-54
2019/10/02 15:21:03;;;;;;;3.44;1.51;;;;;;;20.65;56.24;100136.83;;;;-57
2019/10/02 15:24:03;;;;;;;4.25;1.55;;;;;;;20.65;56.24;100137.00;;;;-52
2019/10/02 15:27:03;;;;;;;4.20;1.55;;;;;;;20.67;56.26;100141.43;;;;-59
2019/10/02 15:30:03;;;;;;;4.30;1.49;;;;;;;20.68;56.18;100150.02;;;;-58
2019/10/02 15:33:02;;;;;;;2.89;1.62;;;;;;;20.68;56.22;100152.77;;;;-52
2019/10/02 15:36:02;;;;;;;2.11;1.67;;;;;;;20.69;56.23;100158.95;;;;-58
2019/10/02 15:39:03;;;;;;;3.54;1.63;;;;;;;20.68;56.21;100158.08;;;;-59
2019/10/02 15:42:03;;;;;;;3.67;1.53;;;;;;;20.68;56.24;100162.94;;;;-58
2019/10/02 15:45:03;;;;;;;3.95;1.60;;;;;;;20.69;56.24;100166.84;;;;-60
2019/10/02 15:48:03;;;;;;;6.72;1.86;;;;;;;20.70;56.20;100170.47;;;;-60
2019/10/02 15:51:03;;;;;;;3.49;1.57;;;;;;;20.69;56.27;100174.12;;;;-60
2019/10/02 15:54:03;;;;;;;4.86;1.64;;;;;;;20.68;56.23;100174.59;;;;-60
2019/10/02 15:57:02;;;;;;;3.38;1.37;;;;;;;20.67;56.21;100181.27;;;;-60
2019/10/02 16:00:03;;;;;;;2.79;1.50;;;;;;;20.67;56.21;100186.63;;;;-60
2019/10/02 16:03:02;;;;;;;4.22;1.50;;;;;;;20.65;56.18;100189.08;;;;-60
2019/10/02 16:06:03;;;;;;;4.17;1.50;;;;;;;20.63;56.17;100192.70;;;;-60
2019/10/02 16:09:03;;;;;;;3.13;1.55;;;;;;;20.63;56.16;100195.66;;;;-60
2019/10/02 16:12:03;;;;;;;3.95;1.48;;;;;;;20.63;56.14;100202.87;;;;-60
2019/10/02 16:15:02;;;;;;;2.59;1.52;;;;;;;20.62;56.14;100207.80;;;;-60
2019/10/02 16:18:02;;;;;;;3.37;1.37;;;;;;;20.62;56.13;100208.70;;;;-60
2019/10/02 16:21:02;;;;;;;2.05;1.29;;;;;;;20.60;56.17;100208.47;;;;-60
2019/10/02 16:24:03;;;;;;;1.99;1.40;;;;;;;20.60;56.13;100211.05;;;;-60
2019/10/02 16:27:03;;;;;;;3.25;1.53;;;;;;;20.60;56.14;100219.14;;;;-60
2019/10/02 16:30:03;;;;;;;2.33;1.45;;;;;;;20.59;56.16;100217.83;;;;-60
2019/10/02 16:33:03;;;;;;;1.97;1.44;;;;;;;20.59;56.13;100221.62;;;;-60
2019/10/02 16:36:03;;;;;;;3.37;1.43;;;;;;;20.58;56.14;100224.00;;;;-57
2019/10/02 16:39:03;;;;;;;3.48;1.54;;;;;;;20.58;56.12;100228.26;;;;-58
2019/10/02 16:42:02;;;;;;;3.17;1.50;;;;;;;20.57;56.16;100230.61;;;;-57
2019/10/02 16:45:03;;;;;;;3.01;1.59;;;;;;;20.56;56.19;100237.41;;;;-57
2019/10/02 16:48:03;;;;;;;2.00;1.40;;;;;;;20.58;56.10;100241.84;;;;-61
2019/10/02 16:51:03;;;;;;;3.27;1.34;;;;;;;20.55;56.19;100242.27;;;;-57
2019/10/02 16:54:03;;;;;;;3.35;1.45;;;;;;;20.56;56.10;100242.22;;;;-57
2019/10/02 16:57:02;;;;;;;1.89;1.41;;;;;;;20.57;56.08;100249.39;;;;-56
2019/10/02 17:00:03;;;;;;;2.37;1.41;;;;;;;20.56;56.07;100251.34;;;;-57
2019/10/02 17:04:03;;;;;;;1.62;1.40;;;;;;;20.56;56.09;100258.82;;;;-58
2019/10/02 17:07:02;;;;;;;2.67;1.38;;;;;;;20.55;56.06;100268.02;;;;-57